アスタナ の空港の天気 - METARとTAF

アスタナ国際空港 ( UACC / TSE ) - カザフスタン アスタナ
飛行場実況気象(Metar)
観測時間01/23 10:00 QYZT (01/23 04:00 UTC)
風向・風速東北東 6m/s
視程10km以上
天気現象
なし
気温-39℃
湿度66%
気圧1048hPa
METARUACC 230400Z 07006MPS CAVOK M39/M43 Q1048 R04/9///50 NOSIG RMK QFE754/1005
過去の天気等 Google飛行場航空写真 Wunderground天気予報

過去48時間のMETAR

飛行場予報(TAF)
発表時間: 1/23 05:00 QYZT (1/22 23:00 UTC)
予報対象時間: 23日6時 QYZT ~ 24日6時 QYZT
風向・風速東北東 6m/s
視程10km以上
なし
TAF UACC 222300Z 2300/2324 06006MPS 9999 NSC TXM29/2310Z TNM41/2302Z